TimeCST,TemperatureF,Dew PointF,Humidity,Sea Level PressureIn,VisibilityMPH,Wind Direction,Wind SpeedMPH,Gust SpeedMPH,PrecipitationIn,Events,Conditions,WindDirDegrees,DateUTC
12:53 AM,46.0,43.0,89,30.19,5.0,North,10.4,-,0.02,Rain,Rain,350,2013-01-03 06:53:00
1:42 AM,44.6,42.8,93,30.18,7.0,North,9.2,-,0.03,Rain,Light Rain,360,2013-01-03 07:42:00
1:53 AM,45.0,42.1,90,30.18,7.0,North,9.2,-,0.03,Rain,Light Rain,360,2013-01-03 07:53:00
2:53 AM,45.0,42.1,90,30.20,7.0,North,6.9,-,0.05,Rain,Light Rain,350,2013-01-03 08:53:00
3:46 AM,44.6,42.8,93,30.18,7.0,North,5.8,-,0.04,Rain,Light Rain,360,2013-01-03 09:46:00
3:53 AM,44.1,42.1,93,30.19,7.0,North,6.9,-,0.05,Rain,Light Rain,10,2013-01-03 09:53:00
4:06 AM,44.6,42.8,93,30.18,7.0,North,6.9,-,0.01,Rain,Light Rain,360,2013-01-03 10:06:00
4:22 AM,44.6,42.8,93,30.19,6.0,NNW,8.1,-,0.03,Rain,Rain,340,2013-01-03 10:22:00
4:53 AM,44.1,42.1,93,30.20,8.0,North,9.2,-,0.06,Rain,Light Rain,360,2013-01-03 10:53:00
5:53 AM,44.1,41.0,89,30.22,10.0,North,10.4,-,0.02,Rain,Light Rain,350,2013-01-03 11:53:00
6:53 AM,44.1,41.0,89,30.22,10.0,North,6.9,-,0.01,Rain,Light Rain,360,2013-01-03 12:53:00
7:25 AM,44.6,41.0,87,30.22,10.0,North,8.1,-,0.00,Rain,Light Rain,350,2013-01-03 13:25:00
7:53 AM,43.0,41.0,93,30.24,7.0,North,10.4,-,0.03,Rain,Light Rain,360,2013-01-03 13:53:00
8:53 AM,43.0,41.0,93,30.27,10.0,North,13.8,20.7,0.05,Rain,Light Rain,350,2013-01-03 14:53:00
9:53 AM,44.1,41.0,89,30.26,10.0,NNE,10.4,-,0.02,Rain,Light Rain,20,2013-01-03 15:53:00
10:53 AM,45.0,41.0,86,30.26,10.0,North,11.5,-,0.00,,Overcast,360,2013-01-03 16:53:00
11:53 AM,46.0,39.9,79,30.24,10.0,NNW,12.7,-,N/A,,Overcast,340,2013-01-03 17:53:00
12:53 PM,46.9,39.9,77,30.23,10.0,North,9.2,-,N/A,,Overcast,350,2013-01-03 18:53:00
1:53 PM,45.0,39.0,80,30.22,10.0,North,12.7,-,N/A,,Overcast,350,2013-01-03 19:53:00
2:53 PM,46.0,39.0,76,30.24,10.0,North,11.5,17.3,N/A,,Overcast,350,2013-01-03 20:53:00
3:53 PM,46.0,37.0,71,30.25,10.0,North,9.2,18.4,N/A,,Partly Cloudy,360,2013-01-03 21:53:00
4:53 PM,45.0,36.0,71,30.27,10.0,North,9.2,-,N/A,,Clear,360,2013-01-03 22:53:00
5:53 PM,44.1,36.0,73,30.30,10.0,North,9.2,-,N/A,,Clear,360,2013-01-03 23:53:00
6:53 PM,43.0,36.0,76,30.31,10.0,North,9.2,-,N/A,,Clear,360,2013-01-04 00:53:00
7:53 PM,42.1,34.0,73,30.34,10.0,North,6.9,-,N/A,,Clear,350,2013-01-04 01:53:00
8:53 PM,39.9,33.1,77,30.34,10.0,North,8.1,-,N/A,,Clear,350,2013-01-04 02:53:00
9:53 PM,39.9,30.9,70,30.35,10.0,North,8.1,-,N/A,,Clear,360,2013-01-04 03:53:00
10:53 PM,39.0,30.0,70,30.34,10.0,North,6.9,-,N/A,,Clear,350,2013-01-04 04:53:00
11:53 PM,39.0,28.9,67,30.34,10.0,North,8.1,-,N/A,,Clear,360,2013-01-04 05:53:00